Greenfield, MA (01301)

11:01 PM EDT on August 31, 2015 (GMT -0400)
Beacon Field | | Change Station
CLOSE
Current Station
Personal Weather Station
Location: Greenfield, MA
Elevation: 289 ft
Nearby Weather Stations

Elev 289 ft 42.60 °N, 72.59 °W | Updated 43 seconds ago

Clear
Clear
72.3 °F
Feels Like 73 °F
N
0.0
Wind Variable Wind from SSW
Gusts 0.0 mph

Today
High -- | Low -- °F
--% Chance of Precip.
Yesterday
High -- | Low -- °F
Precip. -- in
6:13 AM 7:26 PM
Waning Gibbous, 92% visible
Pressure 29.96 in
Visibility 10.0 miles
Clouds Clear
Heat Index 73 °F
Dew Point 65 °F
Humidity 77%
Rainfall in
Snow Depth Not available.
UV 0 out of 12
Pollen 10.60 out of 12
Air Quality Not available.
Flu Activity Not available.
METAR KORE 010252Z AUTO 00000KT 10SM CLR 20/17 A2997 RMK AO2 SLP146 T02000172 51007
Pressure 29.96 in
Visibility 10.0 miles
Clouds Clear
Heat Index 73 °F
Dew Point 65 °F
Humidity 77%
Rainfall in
Snow Depth Not available.
UV 0 out of 12
Pollen 10.60 out of 12
Air Quality Not available.
Flu Activity Not available.
METAR KORE 010252Z AUTO 00000KT 10SM CLR 20/17 A2997 RMK AO2 SLP146 T02000172 51007

10-Day Weather Forecast

×

Almanac

Astronomy

Aug. 31, 2015 Rise Set
Actual Time
Civil Twilight
Nautical Twilight
Astronomical Twilight
Moon
Length of Visible Light
Length of Day
Tomorrow will be .
, % of the Moon is Illuminated

Today's Extremes

State Highs State Lows

Community

WunderPhotos

Upload Photos

1,851,463 photos uploaded!

WunderBlogs® & News

Nearby

Air Quality

  Air Quality AQ Index Pollutant
Not available.

Snow Depth

Station Depth Elevation

Earthquake Activity

City Distance Mag. Time & Date
Minimum magnitude displayed is 2.5.

Coastal Water Temperatures

Place Temperature

Stations

Nearby Weather Stations

Station Location Temp. Windchill Dew Point Humidity Wind Precip. Elev Updated Type